Time;durP1;ratioP1;P1;durP2;ratioP2;P2;SDS_P1;SDS_P2;PMS_P1;PMS_P2;Temp;Humidity;BMP_temperature;BMP_pressure;BME280_temperature;BME280_humidity;BME280_pressure;Samples;Min_cycle;Max_cycle;Signal;HPM_P1;HPM_P2
2024/02/03 00:02:14;;;;;;;6.03;5.22;;;;;;;9.24;82.03;101322.22;10389290;28;20462;-63
2024/02/03 00:07:17;;;;;;;6.40;5.47;;;;;;;9.25;82.06;101316.81;10387241;28;20753;-61
2024/02/03 00:12:21;;;;;;;6.13;5.05;;;;;;;9.19;82.51;101323.31;10390088;28;20067;-61
2024/02/03 00:17:23;;;;;;;6.57;5.97;;;;;;;9.17;82.54;101330.53;10373903;28;20099;-60
2024/02/03 00:22:24;;;;;;;6.95;6.18;;;;;;;9.26;82.44;101315.00;10389054;28;20061;-60
2024/02/03 00:27:26;;;;;;;6.75;5.75;;;;;;;9.26;81.88;101302.56;10373679;28;20053;-62
2024/02/03 00:32:30;;;;;;;6.50;5.90;;;;;;;9.34;81.78;101324.25;10391642;28;20191;-61
2024/02/03 00:37:31;;;;;;;8.23;6.63;;;;;;;9.30;82.13;101328.00;10394344;28;20056;-63
2024/02/03 00:42:33;;;;;;;7.10;5.82;;;;;;;9.32;81.73;101318.16;10387829;28;20063;-62
2024/02/03 00:47:34;;;;;;;7.35;6.45;;;;;;;9.29;82.22;101323.66;10385804;28;20055;-62
2024/02/03 00:52:36;;;;;;;6.55;5.82;;;;;;;9.32;82.10;101323.47;10385196;28;20110;-60
2024/02/03 00:57:38;;;;;;;8.27;6.65;;;;;;;9.35;81.95;101328.63;10362313;28;20786;-61
2024/02/03 01:02:41;;;;;;;7.70;6.50;;;;;;;9.38;81.54;101323.13;10391763;28;20045;-62
2024/02/03 01:07:43;;;;;;;7.40;6.45;;;;;;;9.35;81.57;101333.06;10393840;28;20086;-63
2024/02/03 01:12:44;;;;;;;6.57;5.50;;;;;;;9.45;81.18;101336.88;10357919;28;20207;-62
2024/02/03 01:17:47;;;;;;;7.97;7.05;;;;;;;9.48;80.98;101335.88;10388370;28;20051;-61
2024/02/03 01:22:49;;;;;;;7.47;6.07;;;;;;;9.47;81.22;101331.47;10391536;28;20049;-61
2024/02/03 01:27:53;;;;;;;9.43;6.63;;;;;;;9.37;81.57;101331.19;10372379;28;20084;-62
2024/02/03 01:32:55;;;;;;;9.15;7.68;;;;;;;9.34;82.16;101326.06;10393252;28;20387;-62
2024/02/03 01:37:57;;;;;;;7.60;6.80;;;;;;;9.36;82.08;101346.25;10372870;28;20060;-61
2024/02/03 01:43:02;;;;;;;7.95;7.25;;;;;;;9.35;81.61;101351.66;10378510;28;20053;-59
2024/02/03 01:48:05;;;;;;;;;;;;;;;9.34;81.91;101352.63;10398259;28;20052;-62
2024/02/03 01:53:09;;;;;;;7.00;6.13;;;;;;;9.29;81.32;101342.25;10390215;28;19928;-62
2024/02/03 01:58:10;;;;;;;7.25;6.40;;;;;;;9.31;82.05;101345.69;10389927;28;20049;-62
2024/02/03 02:03:14;;;;;;;7.63;6.00;;;;;;;9.34;82.11;101342.00;10369506;28;20135;-61
2024/02/03 02:08:16;;;;;;;8.13;6.80;;;;;;;9.29;82.47;101344.91;10389046;28;20052;-60
2024/02/03 02:13:18;;;;;;;6.55;5.45;;;;;;;9.35;82.64;101349.00;10392961;28;20062;-61
2024/02/03 02:18:19;;;;;;;7.20;6.03;;;;;;;9.35;83.17;101346.34;10394172;28;20053;-61
2024/02/03 02:23:21;;;;;;;7.57;6.60;;;;;;;9.28;83.84;101337.03;10370943;28;20077;-60
2024/02/03 02:28:24;;;;;;;8.40;5.82;;;;;;;9.34;84.19;101342.00;10402554;28;20179;-62
2024/02/03 02:33:28;;;;;;;6.75;5.93;;;;;;;9.25;85.25;101321.25;10399025;28;20053;-61
2024/02/03 02:38:30;;;;;;;7.25;6.20;;;;;;;9.29;85.97;101333.41;10387339;28;20056;-61
2024/02/03 02:43:32;;;;;;;7.53;6.28;;;;;;;9.15;86.18;101316.47;10392597;28;20053;-62
2024/02/03 02:48:33;;;;;;;8.20;7.15;;;;;;;9.10;87.58;101328.31;10393119;28;20049;-63
2024/02/03 02:53:34;;;;;;;7.47;5.45;;;;;;;9.10;87.83;101329.16;10391221;28;20041;-61
2024/02/03 02:58:36;;;;;;;6.57;5.88;;;;;;;9.10;87.93;101334.47;10383647;28;20189;-62
2024/02/03 03:03:38;;;;;;;6.38;5.72;;;;;;;9.06;88.21;101338.25;10395860;28;20486;-61
2024/02/03 03:08:39;;;;;;;5.93;4.80;;;;;;;9.00;88.80;101335.94;10398255;28;20061;-60
2024/02/03 03:13:41;;;;;;;7.00;5.32;;;;;;;9.02;89.00;101331.38;10370872;28;20083;-62
2024/02/03 03:18:43;;;;;;;6.10;5.50;;;;;;;8.99;89.04;101310.31;10379127;28;20756;-63
2024/02/03 03:23:45;;;;;;;5.65;4.50;;;;;;;9.10;89.57;101329.16;10392507;28;20132;-61
2024/02/03 03:28:48;;;;;;;5.35;4.60;;;;;;;9.03;89.62;101327.81;10380529;28;20047;-62
2024/02/03 03:33:49;;;;;;;6.18;5.32;;;;;;;8.96;90.09;101315.81;10387180;28;20040;-61
2024/02/03 03:38:51;;;;;;;5.90;5.32;;;;;;;9.10;90.55;101328.31;10358812;28;20104;-63
2024/02/03 03:43:52;;;;;;;6.72;5.57;;;;;;;8.98;91.50;101332.53;10390497;28;20061;-61
2024/02/03 03:48:54;;;;;;;5.75;5.15;;;;;;;8.96;91.60;101339.72;10382933;28;20061;-62
2024/02/03 03:53:56;;;;;;;6.72;5.53;;;;;;;8.91;92.69;101331.16;10384178;28;20101;-62
2024/02/03 03:58:57;;;;;;;7.07;5.47;;;;;;;8.89;92.37;101325.06;10383304;28;20056;-62
2024/02/03 04:03:59;;;;;;;6.35;4.80;;;;;;;8.80;93.35;101327.31;10384244;28;20138;-60
2024/02/03 04:09:00;;;;;;;7.00;5.22;;;;;;;8.86;93.41;101326.13;10382597;28;20059;-61
2024/02/03 04:14:02;;;;;;;6.53;5.55;;;;;;;8.84;93.27;101334.16;10377731;28;20087;-62
2024/02/03 04:19:04;;;;;;;5.97;5.28;;;;;;;8.75;94.56;101337.34;10391062;28;20059;-60
2024/02/03 04:24:07;;;;;;;5.90;5.30;;;;;;;8.76;94.79;101335.53;10386533;28;20059;-63
2024/02/03 04:29:08;;;;;;;5.28;4.53;;;;;;;8.63;96.37;101324.72;10387187;28;20059;-60
2024/02/03 04:34:10;;;;;;;5.57;4.63;;;;;;;8.52;96.88;101311.19;10379812;28;20147;-62
2024/02/03 04:39:13;;;;;;;5.10;4.60;;;;;;;8.63;97.68;101328.25;10397121;28;20055;-60
2024/02/03 04:44:14;;;;;;;6.63;5.50;;;;;;;8.66;97.76;101319.25;10376909;28;20856;-64
2024/02/03 04:49:16;;;;;;;4.97;4.45;;;;;;;8.71;97.66;101316.31;10389890;28;20053;-60
2024/02/03 04:54:18;;;;;;;5.18;4.43;;;;;;;8.67;98.17;101310.34;10368498;28;20049;-63
2024/02/03 04:59:19;;;;;;;5.47;4.65;;;;;;;8.70;97.92;101304.88;10384847;28;20055;-62
2024/02/03 05:04:21;;;;;;;6.20;5.32;;;;;;;8.62;99.07;101315.06;10368897;28;20112;-61
2024/02/03 05:09:23;;;;;;;5.15;4.45;;;;;;;8.70;98.44;101304.88;10398639;28;20057;-61
2024/02/03 05:14:25;;;;;;;4.90;4.30;;;;;;;8.65;98.79;101304.28;10379004;28;20053;-62
2024/02/03 05:19:28;;;;;;;5.18;4.68;;;;;;;8.57;99.45;101310.00;10389606;28;20064;-61
2024/02/03 05:24:32;;;;;;;4.55;3.72;;;;;;;8.64;98.91;101306.06;10412979;28;20056;-60
2024/02/03 05:29:33;;;;;;;4.57;3.60;;;;;;;8.61;98.99;101300.91;10390607;28;20048;-63
2024/02/03 05:34:35;;;;;;;5.10;3.80;;;;;;;8.56;99.06;101286.22;10392099;28;20053;-63
2024/02/03 05:39:36;;;;;;;4.60;3.75;;;;;;;8.67;98.57;101289.09;10361109;28;20053;-62
2024/02/03 05:44:38;;;;;;;3.88;3.50;;;;;;;8.58;97.93;101268.41;10377268;28;20045;-61
2024/02/03 05:49:40;;;;;;;3.85;3.38;;;;;;;8.60;98.35;101277.13;10397941;28;20568;-62
2024/02/03 05:54:42;;;;;;;3.10;2.80;;;;;;;8.62;97.98;101280.56;10394652;28;20119;-63
2024/02/03 05:59:44;;;;;;;3.13;2.75;;;;;;;8.68;97.72;101285.53;10376142;28;20105;-63
2024/02/03 06:04:52;;;;;;;2.58;2.20;;;;;;;8.70;97.13;101286.28;10392030;28;20544;-62
2024/02/03 06:09:53;;;;;;;3.80;1.73;;;;;;;8.75;96.68;101275.41;10363136;28;20135;-61
2024/02/03 06:14:57;;;;;;;1.83;1.67;;;;;;;8.70;96.44;101278.31;10381293;28;20721;-61
2024/02/03 06:19:59;;;;;;;2.33;1.92;;;;;;;8.60;96.53;101270.03;10383615;28;20061;-61
2024/02/03 06:25:01;;;;;;;2.90;2.25;;;;;;;8.81;95.79;101283.00;10381430;28;20045;-60
2024/02/03 06:30:02;;;;;;;2.15;1.65;;;;;;;8.79;94.88;101272.47;10390001;28;20053;-62
2024/02/03 06:35:04;;;;;;;2.08;1.60;;;;;;;8.89;94.41;101271.94;10364677;28;20057;-62
2024/02/03 06:40:06;;;;;;;1.83;1.50;;;;;;;9.03;94.00;101285.31;10374471;28;20049;-62
2024/02/03 06:45:09;;;;;;;2.30;1.80;;;;;;;9.06;93.41;101278.97;10381763;28;20065;-62
2024/02/03 06:50:12;;;;;;;1.98;1.50;;;;;;;9.12;93.15;101278.63;10387626;28;20510;-62
2024/02/03 06:55:13;;;;;;;2.28;1.40;;;;;;;8.99;93.34;101263.41;10391915;28;20060;-63
2024/02/03 07:00:15;;;;;;;1.83;1.35;;;;;;;9.02;93.37;101265.00;10375261;28;20053;-63
2024/02/03 07:05:16;;;;;;;3.15;2.38;;;;;;;9.09;93.39;101279.63;10385375;28;20052;-62
2024/02/03 07:10:19;;;;;;;1.98;1.75;;;;;;;8.95;94.29;101266.31;10397177;28;20053;-63
2024/02/03 07:15:20;;;;;;;2.53;2.33;;;;;;;8.95;94.06;101258.34;10374304;28;20546;-60
2024/02/03 07:20:26;;;;;;;2.67;1.98;;;;;;;8.88;94.65;101270.25;10379249;28;20260;-63
2024/02/03 07:25:29;;;;;;;2.65;2.08;;;;;;;8.93;94.65;101270.84;10386699;28;20124;-62
2024/02/03 07:30:33;;;;;;;2.88;1.80;;;;;;;9.05;93.84;101266.63;10393081;28;20059;-63
2024/02/03 07:35:35;;;;;;;2.35;1.77;;;;;;;8.85;93.84;101245.56;10389846;28;20049;-63
2024/02/03 07:40:37;;;;;;;3.25;2.58;;;;;;;8.88;94.29;101259.63;10371864;28;20055;-63
2024/02/03 07:45:40;;;;;;;3.03;1.70;;;;;;;8.83;93.76;101231.53;10380086;28;20036;-61
2024/02/03 07:50:43;;;;;;;2.00;1.45;;;;;;;8.91;93.80;101243.53;10391753;28;20286;-62
2024/02/03 07:55:44;;;;;;;2.63;1.65;;;;;;;8.92;94.18;101245.25;10375290;28;20136;-62
2024/02/03 08:00:46;;;;;;;2.83;1.50;;;;;;;8.92;93.93;101242.59;10386575;28;20631;-62
2024/02/03 08:05:49;;;;;;;2.00;1.80;;;;;;;8.95;94.12;101245.06;10389602;28;20055;-62
2024/02/03 08:10:51;;;;;;;2.55;1.77;;;;;;;9.00;93.62;101243.84;10385485;28;20063;-63
2024/02/03 08:15:53;;;;;;;2.55;1.67;;;;;;;8.63;93.78;101189.34;10379236;28;20118;-63
2024/02/03 08:20:54;;;;;;;2.50;2.30;;;;;;;8.92;94.15;101250.56;10379686;28;20150;-62
2024/02/03 08:25:56;;;;;;;3.60;1.90;;;;;;;8.97;93.77;101251.97;10398858;28;20045;-62
2024/02/03 08:30:57;;;;;;;2.63;2.13;;;;;;;9.07;93.12;101233.72;10392910;28;20063;-63
2024/02/03 08:35:59;;;;;;;1.77;1.67;;;;;;;9.02;93.42;101228.69;10356329;28;20132;-62
2024/02/03 08:41:01;;;;;;;2.80;2.45;;;;;;;9.23;92.58;101232.81;10368856;28;20058;-62
2024/02/03 08:46:03;;;;;;;2.47;1.35;;;;;;;9.25;91.69;101220.28;10369324;28;20178;-62
2024/02/03 08:51:05;;;;;;;1.52;1.33;;;;;;;9.20;91.67;101221.44;10383718;28;20107;-64
2024/02/03 08:56:07;;;;;;;2.38;1.35;;;;;;;9.18;91.82;101225.97;10386810;28;20127;-63
2024/02/03 09:01:08;;;;;;;1.38;1.10;;;;;;;9.24;91.54;101224.75;10392422;28;20049;-63
2024/02/03 09:06:14;;;;;;;1.60;0.98;;;;;;;9.18;91.55;101223.31;10391691;28;20045;-62
2024/02/03 09:11:16;;;;;;;1.85;1.13;;;;;;;9.31;91.21;101241.19;10389891;28;20063;-63
2024/02/03 09:16:17;;;;;;;1.38;1.02;;;;;;;9.26;90.97;101225.50;10383066;28;20053;-63
2024/02/03 09:21:19;;;;;;;2.80;1.45;;;;;;;9.13;91.60;101225.41;10387698;28;20056;-60
2024/02/03 09:26:21;;;;;;;1.98;0.82;;;;;;;9.23;91.52;101211.56;10368808;28;20058;-63
2024/02/03 09:31:23;;;;;;;1.13;0.73;;;;;;;9.27;91.19;101208.63;10374468;28;20068;-63
2024/02/03 09:36:26;;;;;;;1.90;1.10;;;;;;;9.25;91.36;101207.88;10387633;28;20052;-64
2024/02/03 09:41:28;;;;;;;1.83;0.98;;;;;;;9.36;91.29;101213.38;10390491;28;20056;-63
2024/02/03 09:46:32;;;;;;;1.58;0.68;;;;;;;9.41;91.06;101221.06;10386070;28;20055;-63
2024/02/03 09:51:33;;;;;;;1.88;0.45;;;;;;;9.45;90.99;101229.75;10381162;28;20064;-62
2024/02/03 09:56:35;;;;;;;1.85;0.82;;;;;;;9.43;90.58;101223.63;10376370;28;20065;-63
2024/02/03 10:01:36;;;;;;;0.75;0.57;;;;;;;9.50;90.88;101241.81;10401563;28;20142;-62
2024/02/03 10:06:44;;;;;;;1.65;1.23;;;;;;;9.51;90.83;101232.03;10402765;28;20064;-62
2024/02/03 10:11:46;;;;;;;1.75;1.20;;;;;;;9.53;90.56;101231.00;10382536;28;20050;-63
2024/02/03 10:16:51;;;;;;;0.97;0.60;;;;;;;9.58;90.61;101244.00;10397279;28;20059;-62
2024/02/03 10:21:53;;;;;;;2.50;0.68;;;;;;;9.56;90.73;101243.22;10394940;28;20112;-62
2024/02/03 10:27:02;;;;;;;1.55;0.82;;;;;;;9.61;90.86;101246.47;10408556;28;20052;-62
2024/02/03 10:32:04;;;;;;;5.28;4.78;;;;;;;9.69;90.75;101256.63;10348600;28;20056;-62
2024/02/03 10:37:06;;;;;;;0.82;0.50;;;;;;;9.69;90.52;101252.16;10394667;28;20493;-62
2024/02/03 10:42:13;;;;;;;1.27;0.85;;;;;;;9.66;90.91;101249.69;10379764;28;20164;-62
2024/02/03 10:47:20;;;;;;;1.20;0.90;;;;;;;9.73;90.90;101243.06;10375968;28;20081;-63
2024/02/03 10:52:24;;;;;;;0.77;0.57;;;;;;;9.77;90.25;101235.75;10376024;28;20072;-62
2024/02/03 10:57:26;;;;;;;1.20;0.68;;;;;;;9.94;89.73;101242.69;10396064;28;20052;-61
2024/02/03 11:02:30;;;;;;;1.20;0.50;;;;;;;9.97;88.83;101239.84;10384843;28;20060;-62
2024/02/03 11:07:31;;;;;;;1.00;0.50;;;;;;;10.08;88.31;101234.69;10383872;28;20052;-62
2024/02/03 11:12:34;;;;;;;1.77;0.60;;;;;;;10.16;86.92;101239.53;10373301;28;20095;-62
2024/02/03 11:17:42;;;;;;;1.15;0.68;;;;;;;10.19;87.12;101249.13;10388159;28;20084;-61
2024/02/03 11:22:50;;;;;;;1.02;0.50;;;;;;;10.25;86.94;101238.97;10388539;28;20138;-61
2024/02/03 11:27:51;;;;;;;0.47;0.25;;;;;;;10.33;86.16;101229.63;10382736;28;20195;-61
2024/02/03 11:32:55;;;;;;;1.50;0.50;;;;;;;10.55;85.93;101239.78;10390261;28;20144;-63
2024/02/03 11:38:07;;;;;;;0.60;0.37;;;;;;;10.64;84.96;101227.69;10400904;28;20525;-61
2024/02/03 11:43:10;;;;;;;1.40;1.00;;;;;;;10.67;84.24;101217.66;10391386;28;20052;-62
2024/02/03 11:48:12;;;;;;;1.88;1.55;;;;;;;10.79;84.02;101226.66;10392739;28;20052;-63
2024/02/03 11:53:24;;;;;;;1.05;0.70;;;;;;;10.76;83.54;101221.53;10375541;28;20680;-66
2024/02/03 11:58:28;;;;;;;1.63;0.50;;;;;;;10.81;83.25;101219.44;10378367;28;20051;-63
2024/02/03 12:03:30;;;;;;;0.60;0.40;;;;;;;10.86;83.44;101217.31;10384258;28;20126;-64
2024/02/03 12:08:34;;;;;;;2.37;1.40;;;;;;;10.84;82.81;101224.56;10393103;28;20305;-64
2024/02/03 12:13:36;;;;;;;2.08;1.77;;;;;;;10.83;83.20;101211.34;10383080;28;21397;-63
2024/02/03 12:18:38;;;;;;;1.65;0.90;;;;;;;10.88;82.74;101212.72;10376651;28;20059;-63
2024/02/03 12:23:40;;;;;;;1.50;1.20;;;;;;;10.99;82.76;101196.06;10383449;28;20053;-64
2024/02/03 12:28:42;;;;;;;2.42;0.73;;;;;;;11.05;81.96;101173.44;10389593;28;20055;-62
2024/02/03 12:33:45;;;;;;;1.02;0.47;;;;;;;11.25;81.77;101180.94;10363500;28;20073;-65
2024/02/03 12:38:47;;;;;;;2.50;0.50;;;;;;;11.55;80.44;101165.63;10373024;28;20733;-64
2024/02/03 12:43:48;;;;;;;0.93;0.50;;;;;;;11.72;78.97;101159.94;10386866;28;20056;-64
2024/02/03 12:48:51;;;;;;;1.33;0.47;;;;;;;11.63;79.15;101158.78;10383984;28;21284;-64
2024/02/03 12:53:53;;;;;;;1.77;0.45;;;;;;;11.57;78.81;101148.53;10376197;28;20045;-63
2024/02/03 12:58:55;;;;;;;1.40;0.60;;;;;;;11.52;78.90;101148.00;10386690;28;20139;-65
2024/02/03 13:03:59;;;;;;;0.68;0.30;;;;;;;11.44;79.60;101153.00;10386695;28;21030;-63
2024/02/03 13:09:01;;;;;;;0.70;0.45;;;;;;;11.49;79.64;101148.22;10383270;28;20058;-64
2024/02/03 13:14:02;;;;;;;0.90;0.35;;;;;;;11.49;79.20;101156.22;10372906;28;20052;-64
2024/02/03 13:19:03;;;;;;;2.05;0.73;;;;;;;11.42;78.91;101141.63;10396777;28;20052;-64
2024/02/03 13:24:06;;;;;;;1.05;0.50;;;;;;;11.48;78.93;101146.50;10389600;28;20057;-64
2024/02/03 13:29:07;;;;;;;3.67;3.40;;;;;;;11.56;78.91;101135.31;10390145;28;20475;-64
2024/02/03 13:34:10;;;;;;;1.38;0.73;;;;;;;11.60;78.53;101142.13;10396128;28;20162;-64
2024/02/03 13:39:18;;;;;;;2.35;1.95;;;;;;;11.54;77.70;101138.06;10381801;28;20072;-63
2024/02/03 13:44:20;;;;;;;2.50;1.83;;;;;;;11.55;77.67;101141.63;10398702;28;20981;-64
2024/02/03 13:49:21;;;;;;;0.47;0.13;;;;;;;11.57;77.16;101137.84;10378130;28;20048;-63
2024/02/03 13:54:23;;;;;;;0.68;0.20;;;;;;;11.55;77.47;101122.94;10389158;28;20057;-62
2024/02/03 13:59:28;;;;;;;0.32;0.15;;;;;;;11.64;77.18;101132.97;10394738;28;20098;-63
2024/02/03 14:04:30;;;;;;;;;;;;;;;11.62;76.91;101126.88;10369412;28;20050;-63
2024/02/03 14:09:31;;;;;;;0.70;0.10;;;;;;;11.67;76.75;101133.59;10384304;28;19925;-64
2024/02/03 14:14:34;;;;;;;0.52;0.10;;;;;;;11.73;76.11;101129.63;10380381;28;20055;-64
2024/02/03 14:19:36;;;;;;;0.70;0.10;;;;;;;11.76;76.25;101125.91;10386423;28;20536;-65
2024/02/03 14:24:39;;;;;;;0.30;0.13;;;;;;;11.70;75.92;101113.00;10389943;28;20089;-65
2024/02/03 14:29:40;;;;;;;0.88;0.25;;;;;;;11.74;76.28;101127.81;10397644;28;20050;-64
2024/02/03 14:34:42;;;;;;;0.40;0.20;;;;;;;11.74;76.35;101126.00;10401589;28;22271;-64
2024/02/03 14:39:44;;;;;;;0.22;0.10;;;;;;;11.74;75.80;101112.69;10396658;28;20147;-66
2024/02/03 14:44:45;;;;;;;1.38;0.20;;;;;;;11.77;75.60;101111.59;10389621;28;20052;-64
2024/02/03 14:49:47;;;;;;;0.30;0.10;;;;;;;11.75;75.63;101119.69;10411609;28;20148;-63
2024/02/03 14:54:51;;;;;;;1.60;0.20;;;;;;;11.64;76.38;101106.28;10398779;28;20492;-65
2024/02/03 14:59:52;;;;;;;0.30;0.10;;;;;;;11.63;76.40;101109.91;10367077;28;20071;-65
2024/02/03 15:04:54;;;;;;;0.60;0.28;;;;;;;11.56;76.74;101106.84;10352483;28;20051;-65
2024/02/03 15:09:59;;;;;;;1.42;0.40;;;;;;;11.46;77.64;101106.63;10372197;28;20060;-65
2024/02/03 15:15:04;;;;;;;0.70;0.35;;;;;;;11.48;78.09;101103.84;10387787;28;20053;-65
2024/02/03 15:20:07;;;;;;;;;;;;;;;11.47;78.40;101095.00;10387726;28;20048;-64
2024/02/03 15:25:11;;;;;;;0.68;0.45;;;;;;;11.27;78.73;101075.09;10380342;28;19932;-65
2024/02/03 15:30:12;;;;;;;1.45;0.47;;;;;;;11.37;78.84;101104.63;10385439;28;20502;-65
2024/02/03 15:35:16;;;;;;;3.17;0.90;;;;;;;11.35;79.04;101129.66;10386016;28;21113;-65
2024/02/03 15:40:18;;;;;;;2.72;0.88;;;;;;;11.27;79.47;101120.41;10374241;28;20053;-64
2024/02/03 15:45:24;;;;;;;1.88;1.20;;;;;;;11.23;79.49;101102.94;10394136;28;20170;-64
2024/02/03 15:50:27;;;;;;;2.25;0.73;;;;;;;11.20;79.72;101124.47;10388012;28;20135;-65
2024/02/03 15:55:33;;;;;;;1.00;0.50;;;;;;;11.12;80.03;101110.81;10386731;28;20111;-65
2024/02/03 16:00:34;;;;;;;2.40;0.82;;;;;;;11.09;80.37;101101.22;10366732;28;20053;-65
2024/02/03 16:05:36;;;;;;;2.83;1.25;;;;;;;11.05;80.74;101099.72;10391240;28;20045;-64
2024/02/03 16:10:37;;;;;;;1.13;0.82;;;;;;;11.09;80.39;101105.69;10376712;28;20064;-64
2024/02/03 16:15:40;;;;;;;1.20;0.70;;;;;;;11.04;80.58;101118.47;10382972;28;20476;-63
2024/02/03 16:20:43;;;;;;;1.00;0.60;;;;;;;11.04;80.50;101113.16;10387227;28;20503;-65
2024/02/03 16:25:45;;;;;;;2.95;2.17;;;;;;;10.91;80.66;101107.81;10389797;28;20671;-64
2024/02/03 16:30:46;;;;;;;1.08;0.50;;;;;;;11.02;80.56;101121.25;10390233;28;20076;-65
2024/02/03 16:35:48;;;;;;;1.27;0.63;;;;;;;10.95;81.07;101134.13;10371742;28;20106;-64
2024/02/03 16:40:49;;;;;;;6.40;4.90;;;;;;;10.98;81.03;101124.22;10388858;28;20127;-64
2024/02/03 16:45:51;;;;;;;4.90;3.35;;;;;;;10.99;81.12;101123.25;10392980;28;20118;-65
2024/02/03 16:50:52;;;;;;;2.05;1.52;;;;;;;11.02;81.17;101120.38;10385594;28;20048;-65
2024/02/03 16:55:54;;;;;;;1.50;1.00;;;;;;;11.02;81.29;101117.72;10400226;28;20672;-65
2024/02/03 17:00:56;;;;;;;1.20;0.50;;;;;;;10.96;81.30;101119.84;10376711;28;20421;-65
2024/02/03 17:05:58;;;;;;;1.02;0.70;;;;;;;10.98;81.36;101113.56;10406724;28;20045;-65
2024/02/03 17:10:59;;;;;;;1.83;1.45;;;;;;;11.10;81.42;101123.38;10378285;28;20115;-64
2024/02/03 17:16:05;;;;;;;1.52;0.70;;;;;;;11.07;81.69;101107.63;10383482;28;20084;-66
2024/02/03 17:21:12;;;;;;;2.10;1.27;;;;;;;10.99;82.47;101123.25;10395800;28;20057;-66
2024/02/03 17:26:14;;;;;;;2.67;1.35;;;;;;;10.92;83.04;101114.84;10396066;28;20490;-65
2024/02/03 17:31:15;;;;;;;3.08;2.30;;;;;;;10.89;83.66;101107.06;10399391;28;20116;-64
2024/02/03 17:36:17;;;;;;;1.83;0.93;;;;;;;10.83;84.42;101111.00;10398734;28;20114;-64
2024/02/03 17:41:19;;;;;;;2.75;1.15;;;;;;;10.84;84.47;101115.38;10395651;28;20047;-63
2024/02/03 17:46:21;;;;;;;1.38;0.90;;;;;;;10.74;84.99;101125.78;10399304;28;20072;-63
2024/02/03 17:51:22;;;;;;;5.10;1.27;;;;;;;10.80;85.05;101121.84;10393769;28;22940;-65
2024/02/03 17:56:24;;;;;;;1.73;0.85;;;;;;;10.87;84.91;101124.94;10388070;28;20049;-65
2024/02/03 18:01:25;;;;;;;1.33;0.65;;;;;;;10.89;85.01;101115.06;10396496;28;20278;-64
2024/02/03 18:06:29;;;;;;;2.60;1.30;;;;;;;10.98;85.33;101117.09;10395638;28;20056;-64
2024/02/03 18:11:33;;;;;;;2.85;1.30;;;;;;;10.98;85.15;101116.25;10380412;28;20063;-62
2024/02/03 18:16:35;;;;;;;2.65;1.77;;;;;;;10.97;85.25;101118.03;10382627;28;20096;-64
2024/02/03 18:21:37;;;;;;;2.75;1.90;;;;;;;10.88;85.69;101116.84;10375829;28;20053;-64
2024/02/03 18:26:39;;;;;;;2.97;1.42;;;;;;;10.91;85.43;101108.69;10382680;28;20072;-63
2024/02/03 18:31:40;;;;;;;3.13;1.75;;;;;;;10.87;85.32;101107.16;10401919;28;20759;-63
2024/02/03 18:36:42;;;;;;;1.77;1.23;;;;;;;10.88;85.73;101130.16;10395241;28;20060;-64
2024/02/03 18:41:44;;;;;;;2.20;1.45;;;;;;;10.89;85.90;101131.88;10392951;28;20161;-63
2024/02/03 18:46:45;;;;;;;3.03;1.27;;;;;;;10.93;86.35;101132.53;10390849;28;20053;-63
2024/02/03 18:51:47;;;;;;;2.55;1.27;;;;;;;10.97;86.60;101126.03;10391817;28;20806;-64
2024/02/03 18:56:50;;;;;;;1.20;0.70;;;;;;;10.96;87.00;101127.84;10391207;28;20065;-63
2024/02/03 19:01:51;;;;;;;1.67;1.10;;;;;;;10.92;87.64;101113.03;10394427;28;20056;-61
2024/02/03 19:06:53;;;;;;;1.35;0.85;;;;;;;10.92;88.46;101110.34;10395526;28;20092;-63
2024/02/03 19:11:54;;;;;;;1.08;0.90;;;;;;;10.89;89.42;101115.06;10390354;28;20057;-64
2024/02/03 19:16:56;;;;;;;0.93;0.77;;;;;;;10.86;90.00;101113.44;10378437;28;20053;-64
2024/02/03 19:21:57;;;;;;;1.52;0.90;;;;;;;10.82;90.20;101095.97;10417082;28;20049;-59
2024/02/03 19:27:01;;;;;;;1.10;0.75;;;;;;;10.88;89.78;101097.34;10398211;28;20871;-62
2024/02/03 19:32:05;;;;;;;1.92;1.40;;;;;;;10.82;90.12;101092.44;10378076;28;20053;-61
2024/02/03 19:37:06;;;;;;;1.58;1.08;;;;;;;10.77;90.54;101104.25;10357861;28;20096;-63
2024/02/03 19:42:08;;;;;;;1.55;0.88;;;;;;;10.83;90.43;101116.31;10391574;28;20041;-62
2024/02/03 19:47:34;;;;;;;2.00;0.85;;;;;;;10.87;90.41;101122.28;10379793;28;20045;-63
2024/02/03 19:53:04;;;;;;;2.92;1.15;;;;;;;10.74;90.50;101096.47;10384422;28;20037;-63
2024/02/03 19:58:31;;;;;;;1.98;1.30;;;;;;;10.89;90.03;101104.41;10392943;28;20079;-65
2024/02/03 20:03:57;;;;;;;5.57;1.60;;;;;;;10.84;90.05;101104.72;10379224;28;20067;-63
2024/02/03 20:09:23;;;;;;;1.77;1.30;;;;;;;10.86;90.23;101110.78;10374399;28;20128;-62
2024/02/03 20:14:25;;;;;;;1.17;0.90;;;;;;;10.86;90.18;101123.25;10350470;28;20048;-64
2024/02/03 20:19:27;;;;;;;1.20;1.02;;;;;;;10.79;90.68;101131.66;10383181;28;20089;-63
2024/02/03 20:24:29;;;;;;;0.80;0.70;;;;;;;10.84;90.49;101130.47;10389855;28;20057;-63
2024/02/03 20:29:30;;;;;;;1.70;0.57;;;;;;;10.82;90.31;101125.25;10378719;28;20126;-65
2024/02/03 20:34:32;;;;;;;1.33;0.90;;;;;;;10.81;90.41;101128.91;10385133;28;20072;-64
2024/02/03 20:39:34;;;;;;;1.60;1.10;;;;;;;10.82;90.43;101135.91;10391649;28;20191;-64
2024/02/03 20:44:35;;;;;;;1.00;0.88;;;;;;;10.82;90.76;101162.53;10395574;28;20052;-62
2024/02/03 20:49:37;;;;;;;0.98;0.80;;;;;;;10.75;90.91;101139.97;10383668;28;20072;-65
2024/02/03 20:54:39;;;;;;;1.17;0.70;;;;;;;10.77;90.54;101130.06;10385745;28;20053;-65
2024/02/03 20:59:42;;;;;;;2.22;0.70;;;;;;;10.82;90.50;101127.91;10382785;28;20052;-63
2024/02/03 21:04:43;;;;;;;1.60;1.10;;;;;;;10.82;91.39;101124.41;10383088;28;20143;-61
2024/02/03 21:09:45;;;;;;;1.30;0.68;;;;;;;10.86;91.37;101107.28;10386155;28;20045;-65
2024/02/03 21:14:47;;;;;;;2.13;1.63;;;;;;;10.87;91.53;101095.63;10390275;28;20204;-63
2024/02/03 21:19:52;;;;;;;1.23;1.08;;;;;;;10.83;91.70;101111.00;10391388;28;20196;-62
2024/02/03 21:24:54;;;;;;;0.85;0.50;;;;;;;10.76;91.54;101096.38;10361824;28;20048;-65
2024/02/03 21:29:55;;;;;;;0.93;0.70;;;;;;;10.72;91.84;101100.19;10384679;28;20072;-65
2024/02/03 21:34:58;;;;;;;0.70;0.50;;;;;;;10.76;91.31;101115.03;10388384;28;20124;-60
2024/02/03 21:39:59;;;;;;;1.13;0.70;;;;;;;10.83;90.83;101121.66;10371090;28;20045;-63
2024/02/03 21:45:01;;;;;;;0.88;0.70;;;;;;;10.82;90.36;101122.59;10373133;28;20052;-63
2024/02/03 21:50:03;;;;;;;0.88;0.60;;;;;;;10.86;90.24;101141.91;10396063;28;20293;-62
2024/02/03 21:55:07;;;;;;;1.88;0.60;;;;;;;10.86;90.20;101147.22;10387963;28;20143;-63
2024/02/03 22:00:10;;;;;;;1.25;0.50;;;;;;;10.74;90.71;101128.44;10396254;28;20134;-63
2024/02/03 22:05:11;;;;;;;1.15;0.73;;;;;;;10.76;90.73;101117.69;10382041;28;20055;-64
2024/02/03 22:10:13;;;;;;;1.35;0.70;;;;;;;10.79;90.46;101114.81;10390408;28;20053;-63
2024/02/03 22:15:15;;;;;;;1.23;0.68;;;;;;;10.82;90.06;101114.59;10397077;28;20068;-62
2024/02/03 22:20:17;;;;;;;2.15;0.77;;;;;;;10.89;89.50;101115.91;10389253;28;20079;-61
2024/02/03 22:25:19;;;;;;;0.77;0.38;;;;;;;10.95;89.19;101120.81;10400807;28;20057;-62
2024/02/03 22:30:21;;;;;;;2.35;0.65;;;;;;;10.96;89.01;101122.53;10394318;28;20057;-63
2024/02/03 22:35:23;;;;;;;1.33;0.63;;;;;;;11.02;88.75;101115.06;10384826;28;20057;-63
2024/02/03 22:40:24;;;;;;;1.83;0.50;;;;;;;10.92;88.85;101115.69;10387040;28;20629;-62
2024/02/03 22:45:26;;;;;;;0.73;0.50;;;;;;;10.81;88.62;101086.28;10384123;28;20573;-63
2024/02/03 22:50:30;;;;;;;2.88;0.73;;;;;;;10.82;89.12;101082.63;10393254;28;20052;-63
2024/02/03 22:55:33;;;;;;;0.85;0.47;;;;;;;10.77;88.83;101060.81;10389951;28;20699;-61
2024/02/03 23:00:40;;;;;;;1.67;0.38;;;;;;;10.91;88.69;101087.38;10351425;28;20113;-64
2024/02/03 23:05:42;;;;;;;0.60;0.30;;;;;;;10.66;89.05;101061.56;10382031;28;23166;-63
2024/02/03 23:10:45;;;;;;;1.10;0.57;;;;;;;10.75;89.21;101071.56;10401271;28;20048;-64
2024/02/03 23:15:47;;;;;;;0.80;0.40;;;;;;;10.77;89.47;101060.81;10393291;28;20060;-62
2024/02/03 23:20:49;;;;;;;0.90;0.20;;;;;;;10.73;89.62;101052.19;10395183;28;20059;-63